Impacts METAR Board
IDs:

KCLT - Charlotte/Douglas In, NC, US

Updated at: 1400 UTC 05 Apr 2020
Potential Impact None Slight Moderate High
Time 05/02Z 05/03Z 05/04Z 05/05Z 05/06Z 05/07Z 05/08Z 05/09Z 05/10Z 05/11Z 05/12Z 05/13Z 05/14Z
Temp66 65 63 63 60 60 57 58 56 54 55 56 58
Dewpt37 39 40 38 40 40 41 40 41 43 46 48 50
Altim29.98 29.99 29.99 30.00 29.99 29.99 29.99 30.01 30.02 30.04 30.08 30.11 30.12
VIS10 10 10 10 10 10 10 10 10 10 10 10 10
CIG250 95 100 100 100 250 250 200 200 190 250 180 130
CoverBKNOVCOVCBKNBKNBKNBKNBKNBKNBKNBKNBKNBKN
FltCatVFRVFRVFRVFRVFRVFRVFRVFRVFRVFRVFRVFRVFR
WX--------------------------
WDir1501701701301601409080100110130130160
WSpd6 4 4 6 5 4 4 6 8 9 8 6 5
WGst-- -- -- -- -- -- -- -- -- -- -- -- --
Raw hourly METARs
KCLT 050152Z 15006KT 10SM FEW090 FEW100 BKN250 19/03 A2998 RMK AO2 SLP148 T01890028 $
KCLT 050252Z 17004KT 10SM OVC095 18/04 A2999 RMK AO2 SLP151 T01830039 51018 $
KCLT 050352Z 17004KT 10SM OVC100 17/04 A2999 RMK AO2 SLP148 T01720044 $
KCLT 050452Z 13006KT 10SM BKN100 17/03 A3000 RMK AO2 SLP151 T01720033 402560072 $
KCLT 050552Z 16005KT 10SM SCT090 BKN100 16/04 A2999 RMK AO2 SLP151 T01560044 10217 20156 56001 $
KCLT 050652Z 14004KT 10SM FEW090 SCT100 BKN250 16/04 A2999 RMK AO2 SLP148 T01560044 $
KCLT 050752Z 09004KT 10SM FEW100 BKN250 14/05 A2999 RMK AO2 SLP151 T01390050 $
KCLT 050852Z 08006KT 10SM BKN200 14/04 A3001 RMK AO2 SLP155 T01440044 53005 $
KCLT 050952Z 10008KT 10SM BKN200 13/05 A3002 RMK AO2 SLP158 T01330050 $
KCLT 051052Z 11009KT 10SM BKN190 12/06 A3004 RMK AO2 SLP168 T01220061 $
KCLT 051152Z 13008KT 10SM SCT190 BKN250 13/08 A3008 RMK AO2 SLP181 T01280078 10161 20122 53023 $
KCLT 051252Z 13006KT 10SM FEW009 SCT130 BKN180 BKN250 13/09 A3011 RMK AO2 SLP191 T01330089 $
KCLT 051352Z 16005KT 10SM FEW014 FEW110 BKN130 BKN250 14/10 A3012 RMK AO2 SLP194 T01440100 $



Page loaded:  14:19 UTC  |   07:19 AM Pacific  |   08:19 AM Mountain  |   09:19 AM Central  |   10:19 AM Eastern

 

ADVISORIES

FORECASTS

FORECASTS

OBSERVATIONS

USER TOOLS

ABOUT US